Cashion, Oklahoma
Current Conditions -  °F | °C
As of 9:53 AM on Saturday 22 Nov 2014 (Local Time) from KGOK Reporting Station
Light Rain Light Rain  
Wind Chill: 57°   Ceiling: 9500
Heat Index: 57°   Visibility: 10mi
Dew Point: 54°   Wind: 14mph
Humidity: 89%   Direction: 160°SSE
Pressure: 29.97"   Gusts: NA
Location:  35.8°N, 97.68°W
Report Text: KGOK 221553Z AUTO 16012KT 10SM -RA BKN095 BKN120 14/12 A2997 RMK AO2 RAE1456B36 SLP149 P0000 T01390122
Loading
Personal Weather Stations






























Interactive Weather Map New forecast layout! Learn more

10-Day Weather Forecast

Advertisements
Track Severe Weather on mobile